Time;durP1;ratioP1;P1;durP2;ratioP2;P2;SDS_P1;SDS_P2;PMS_P1;PMS_P2;Temp;Humidity;BMP_temperature;BMP_pressure;BME280_temperature;BME280_humidity;BME280_pressure;Samples;Min_cycle;Max_cycle;Signal;HPM_P1;HPM_P2
2022/09/13 00:00:52;;;;;;;;;4.00;2.00;;;;;25.75;53.43;99370.22;4978117;28;45796;-72
2022/09/13 00:03:19;;;;;;;;;3.00;3.00;;;;;25.90;53.33;99379.25;4976709;28;45431;-72
2022/09/13 00:05:45;;;;;;;;;4.00;3.00;;;;;25.92;53.39;99372.03;4976801;28;45484;-72
2022/09/13 00:08:12;;;;;;;;;3.67;3.67;;;;;25.94;53.10;99375.50;4978432;28;45316;-72
2022/09/13 00:10:39;;;;;;;;;3.00;3.00;;;;;25.89;52.81;99370.38;4976667;28;46455;-72
2022/09/13 00:13:07;;;;;;;;;3.33;3.00;;;;;25.88;52.84;99365.94;4976542;28;45445;-72
2022/09/13 00:15:33;;;;;;;;;5.00;3.00;;;;;25.94;52.60;99364.81;4978114;28;45476;-72
2022/09/13 00:17:59;;;;;;;;;3.00;3.00;;;;;25.99;53.00;99371.66;4978035;28;45463;-73
2022/09/13 00:20:24;;;;;;;;;4.00;4.00;;;;;25.92;52.56;99359.53;4978200;28;45273;-72
2022/09/13 00:22:50;;;;;;;;;3.00;3.00;;;;;25.85;52.63;99330.50;4977938;28;45312;-72
2022/09/13 00:25:16;;;;;;;;;3.00;3.00;;;;;26.01;52.16;99357.34;4978011;28;45187;-72
2022/09/13 00:27:43;;;;;;;;;3.00;3.00;;;;;25.91;51.79;99332.88;4978036;28;45400;-72
2022/09/13 00:30:10;;;;;;;;;4.00;3.00;;;;;25.96;51.60;99328.13;4977619;28;45558;-73
2022/09/13 00:32:36;;;;;;;;;4.00;4.00;;;;;25.99;51.11;99320.81;4977608;28;45443;-72
2022/09/13 00:35:03;;;;;;;;;2.33;2.00;;;;;25.95;51.55;99313.88;4977825;28;45260;-73
2022/09/13 00:37:28;;;;;;;;;3.00;3.00;;;;;26.02;50.93;99317.09;4978217;28;45571;-72
2022/09/13 00:39:54;;;;;;;;;2.67;2.00;;;;;26.06;50.56;99313.31;4976141;28;46973;-74
2022/09/13 00:42:25;;;;;;;;;3.00;3.00;;;;;26.15;50.51;99314.63;4977527;28;45510;-72
2022/09/13 00:44:56;;;;;;;;;4.00;3.67;;;;;26.08;50.40;99291.81;4976310;28;45452;-72
2022/09/13 00:47:40;;;;;;;;;3.00;3.00;;;;;26.14;50.19;99291.47;4977809;28;45503;-72
2022/09/13 00:50:33;;;;;;;;;3.00;3.00;;;;;26.21;50.40;99306.28;4977228;28;46153;-72
2022/09/13 00:53:07;;;;;;;;;2.67;2.67;;;;;26.16;50.33;99295.84;4977314;28;45429;-72
2022/09/13 00:55:57;;;;;;;;;4.00;3.00;;;;;26.18;50.79;99288.59;4977482;28;45561;-73
2022/09/13 00:58:32;;;;;;;;;5.00;5.00;;;;;26.21;50.76;99294.72;4977625;28;45490;-75
2022/09/13 01:01:00;;;;;;;;;2.33;2.33;;;;;26.16;50.64;99282.44;4977409;28;46133;-72
2022/09/13 01:03:29;;;;;;;;;3.00;3.00;;;;;26.21;50.73;99274.16;4977451;28;45469;-73
2022/09/13 01:06:05;;;;;;;;;3.00;3.00;;;;;26.19;50.29;99265.34;4977840;28;45478;-73
2022/09/13 01:08:32;;;;;;;;;2.33;2.33;;;;;26.16;50.45;99252.13;4977698;28;45358;-72
2022/09/13 01:11:00;;;;;;;;;2.00;2.00;;;;;26.27;50.29;99267.59;4977521;28;45382;-73
2022/09/13 01:13:31;;;;;;;;;3.00;3.00;;;;;26.22;49.83;99257.13;4978012;28;45333;-73
2022/09/13 01:15:57;;;;;;;;;3.00;2.67;;;;;26.24;49.68;99265.94;4981011;28;45352;-72
2022/09/13 01:18:23;;;;;;;;;2.33;2.00;;;;;26.16;49.94;99253.00;4979528;28;45397;-72
2022/09/13 01:21:11;;;;;;;;;3.00;3.00;;;;;26.26;50.33;99268.53;4980387;28;46003;-72
2022/09/13 01:23:36;;;;;;;;;3.00;2.67;;;;;26.26;50.36;99269.44;4980584;28;45478;-73
2022/09/13 01:26:13;;;;;;;;;3.00;2.67;;;;;26.22;50.07;99270.50;4980594;28;45467;-73
2022/09/13 01:28:57;;;;;;;;;2.00;2.00;;;;;26.27;49.75;99268.47;4980821;28;45563;-72
2022/09/13 01:31:29;;;;;;;;;2.00;2.00;;;;;26.28;49.12;99270.22;4978753;28;46367;-72
2022/09/13 01:34:05;;;;;;;;;3.00;3.00;;;;;26.32;48.89;99266.41;4980198;28;45450;-72
2022/09/13 01:36:39;;;;;;;;;3.00;3.00;;;;;26.34;48.60;99271.66;4980473;28;45521;-72
2022/09/13 01:39:10;;;;;;;;;3.67;3.00;;;;;26.31;48.73;99264.66;4980222;28;45415;-73
2022/09/13 01:42:00;;;;;;;;;2.67;2.00;;;;;26.39;48.30;99273.13;4980128;28;45213;-73
2022/09/13 01:44:47;;;;;;;;;3.00;2.00;;;;;26.38;48.03;99270.53;4980276;28;45370;-72
2022/09/13 01:47:22;;;;;;;;;6.00;3.67;;;;;26.39;48.32;99256.22;4980323;28;45561;-73
2022/09/13 01:50:19;;;;;;;;;3.67;3.00;;;;;26.41;48.67;99246.28;4980551;28;45423;-72
2022/09/13 01:52:53;;;;;;;;;3.00;3.00;;;;;26.39;48.26;99232.09;4978602;28;47988;-73
2022/09/13 01:55:40;;;;;;;;;3.00;2.33;;;;;26.45;47.61;99250.50;4980092;28;45431;-73
2022/09/13 01:58:12;;;;;;;;;3.00;3.00;;;;;26.48;46.33;99250.34;4980193;28;45258;-72
2022/09/13 02:00:47;;;;;;;;;3.00;2.00;;;;;26.49;45.57;99249.38;4980006;28;45367;-73
2022/09/13 02:03:19;;;;;;;;;3.00;2.67;;;;;26.62;45.21;99249.59;4979533;28;45514;-72
2022/09/13 02:06:06;;;;;;;;;3.00;3.00;;;;;26.72;45.85;99237.41;4979947;28;45570;-72
2022/09/13 02:08:41;;;;;;;;;4.00;2.67;;;;;26.81;45.04;99249.38;4978925;28;45424;-72
2022/09/13 02:11:11;;;;;;;;;2.00;2.00;;;;;26.76;45.33;99230.91;4980052;28;45438;-72
2022/09/13 02:13:45;;;;;;;;;2.00;2.00;;;;;26.73;44.80;99215.00;4978234;28;47011;-73
2022/09/13 02:16:30;;;;;;;;;3.00;2.00;;;;;26.86;44.31;99222.31;4979657;28;45429;-72
2022/09/13 02:19:01;;;;;;;;;2.00;2.00;;;;;26.95;43.58;99241.41;4978322;28;45525;-74
2022/09/13 02:21:37;;;;;;;;;2.00;1.67;;;;;26.94;43.48;99217.41;4978740;28;45439;-72
2022/09/13 02:24:06;;;;;;;;;1.67;1.67;;;;;27.05;43.15;99222.97;4978450;28;45586;-73
2022/09/13 02:26:36;;;;;;;;;2.00;2.00;;;;;27.08;43.10;99212.09;4978370;28;45375;-72
2022/09/13 02:29:09;;;;;;;;;1.00;1.00;;;;;27.09;42.67;99211.09;4979739;28;45559;-72
2022/09/13 02:31:43;;;;;;;;;2.33;2.00;;;;;27.27;41.72;99195.78;4979773;28;45217;-72
2022/09/13 02:34:17;;;;;;;;;2.00;2.00;;;;;27.18;42.25;99180.22;4977923;28;45264;-72
2022/09/13 02:36:47;;;;;;;;;2.33;2.00;;;;;27.18;42.13;99180.22;4979480;28;45230;-73
2022/09/13 02:39:15;;;;;;;;;1.33;1.33;;;;;27.24;41.72;99170.97;4979424;28;45431;-72
2022/09/13 02:42:03;;;;;;;;;1.33;1.00;;;;;27.35;41.38;99165.81;4979488;28;45606;-73
2022/09/13 02:44:36;;;;;;;;;2.00;1.00;;;;;27.35;41.65;99173.84;4979268;28;46336;-72
2022/09/13 02:47:31;;;;;;;;;1.33;1.33;;;;;27.46;40.61;99170.53;4978405;28;45486;-71
2022/09/13 02:50:12;;;;;;;;;1.67;0.67;;;;;27.46;40.93;99159.81;4973832;28;45530;-72
2022/09/13 02:53:18;;;;;;;;;1.33;1.00;;;;;27.37;40.77;99134.41;4977998;28;45536;-73
2022/09/13 02:56:21;;;;;;;;;2.67;1.00;;;;;27.43;40.94;99184.97;4970911;28;46216;-72
2022/09/13 02:59:02;;;;;;;;;2.00;1.67;;;;;27.47;40.78;99170.41;4979112;28;45902;-72
2022/09/13 03:01:28;;;;;;;;;2.00;1.00;;;;;27.44;40.97;99175.13;4979245;28;45507;-73
2022/09/13 03:03:54;;;;;;;;;2.00;2.00;;;;;27.35;41.14;99155.94;4978013;28;45333;-72
2022/09/13 03:06:24;;;;;;;;;2.00;2.00;;;;;27.35;41.69;99153.25;4978573;28;45717;-72
2022/09/13 03:08:51;;;;;;;;;1.33;1.33;;;;;27.35;41.41;99145.22;4978807;28;45502;-73
2022/09/13 03:11:31;;;;;;;;;1.00;1.00;;;;;27.42;41.87;99159.13;4977569;28;45348;-72
2022/09/13 03:14:32;;;;;;;;;2.00;2.00;;;;;27.38;42.15;99157.59;4979054;28;45393;-73
2022/09/13 03:17:22;;;;;;;;;2.00;2.00;;;;;27.38;42.37;99154.91;4977259;28;47159;-73
2022/09/13 03:20:10;;;;;;;;;1.67;1.33;;;;;27.37;42.57;99161.22;4977289;28;45643;-72
2022/09/13 03:22:56;;;;;;;;;4.00;2.00;;;;;27.33;42.82;99151.63;4977689;28;45552;-72
2022/09/13 03:25:44;;;;;;;;;1.33;1.33;;;;;27.17;42.92;99122.19;4978816;28;45439;-72
2022/09/13 03:28:33;;;;;;;;;2.33;2.33;;;;;27.30;42.46;99144.66;4977201;28;45689;-72
2022/09/13 03:31:08;;;;;;;;;1.00;1.00;;;;;27.23;42.93;99139.72;4978505;28;46230;-72
2022/09/13 03:33:50;;;;;;;;;2.00;1.00;;;;;27.29;42.97;99139.38;4978522;28;45376;-73
2022/09/13 03:36:26;;;;;;;;;1.67;1.33;;;;;27.14;43.23;99120.56;4978413;28;45537;-73
2022/09/13 03:39:12;;;;;;;;;3.00;2.00;;;;;27.17;42.68;99112.31;4976850;28;45238;-72
2022/09/13 03:41:47;;;;;;;;;2.00;2.00;;;;;27.26;41.88;99097.53;4978362;28;45388;-72
2022/09/13 03:44:18;;;;;;;;;3.00;2.00;;;;;27.27;42.30;99085.00;4978137;28;45499;-73
2022/09/13 03:46:49;;;;;;;;;3.00;2.00;;;;;27.35;40.98;99077.31;4978485;28;45486;-72
2022/09/13 03:49:17;;;;;;;;;3.00;2.00;;;;;27.49;40.99;99084.50;4978014;28;45863;-72
2022/09/13 03:51:46;;;;;;;;;1.67;1.00;;;;;27.56;40.88;99070.59;4978402;28;45371;-72
2022/09/13 03:54:35;;;;;;;;;2.00;1.00;;;;;27.57;40.64;99063.41;4978147;28;45439;-73
2022/09/13 03:57:20;;;;;;;;;2.00;2.00;;;;;27.47;40.70;99044.34;4976480;28;45401;-72
2022/09/13 03:59:54;;;;;;;;;2.00;2.00;;;;;27.53;40.05;99041.28;4974051;28;45509;-73
2022/09/13 04:02:22;;;;;;;;;2.00;2.00;;;;;27.56;39.94;99041.09;4974210;28;45478;-73
2022/09/13 04:04:48;;;;;;;;;2.00;1.67;;;;;27.66;40.01;99064.66;4969945;28;45482;-73
2022/09/13 04:07:18;;;;;;;;;2.33;2.33;;;;;27.54;40.76;99058.25;4976434;28;45889;-72
2022/09/13 04:09:44;;;;;;;;;1.00;1.00;;;;;27.55;40.19;99039.38;4973771;28;45968;-73
2022/09/13 04:12:10;;;;;;;;;1.67;1.00;;;;;27.61;39.50;99048.00;4976177;28;45533;-72
2022/09/13 04:14:36;;;;;;;;;2.00;2.00;;;;;27.75;39.38;99064.94;4976462;28;45349;-73
2022/09/13 04:17:02;;;;;;;;;1.00;1.00;;;;;27.79;39.53;99052.16;4976191;28;45708;-73
2022/09/13 04:19:27;;;;;;;;;2.00;1.00;;;;;27.73;39.55;99031.09;4974507;28;46292;-74
2022/09/13 04:21:55;;;;;;;;;2.33;2.00;;;;;27.73;39.45;99052.56;4974710;28;45540;-73
2022/09/13 04:24:25;;;;;;;;;1.67;1.00;;;;;27.72;39.32;99040.13;4974646;28;45526;-73
2022/09/13 04:26:52;;;;;;;;;1.33;1.33;;;;;27.63;39.61;99030.81;4976305;28;45313;-73
2022/09/13 04:29:18;;;;;;;;;3.00;2.33;;;;;27.84;39.56;99068.84;4975723;28;45436;-74
2022/09/13 04:31:44;;;;;;;;;1.00;1.00;;;;;27.60;39.44;99025.69;4974586;28;45462;-73
2022/09/13 04:34:10;;;;;;;;;2.33;1.67;;;;;27.67;39.63;99058.31;4975918;28;45481;-73
2022/09/13 04:36:36;;;;;;;;;1.33;1.00;;;;;27.75;39.99;99061.38;4974958;28;45750;-73
2022/09/13 04:39:02;;;;;;;;;2.00;1.00;;;;;27.79;39.53;99079.00;4974344;28;46993;-72
2022/09/13 04:41:28;;;;;;;;;3.00;2.00;;;;;27.69;39.14;99073.34;4975666;28;45734;-72
2022/09/13 04:43:54;;;;;;;;;2.00;1.00;;;;;27.72;39.24;99075.84;4975845;28;45518;-73
2022/09/13 04:46:20;;;;;;;;;2.00;2.00;;;;;27.76;39.28;99071.16;4976020;28;45690;-72
2022/09/13 04:48:49;;;;;;;;;2.00;1.00;;;;;27.48;39.46;99050.59;4978794;28;46110;-72
2022/09/13 04:51:16;;;;;;;;;1.00;0.33;;;;;27.75;39.07;99113.22;4980897;28;45704;-72
2022/09/13 04:53:43;;;;;;;;;2.67;2.00;;;;;27.54;39.81;99088.63;4975720;28;45571;-73
2022/09/13 04:56:09;;;;;;;;;1.00;1.00;;;;;27.46;39.57;99087.41;4981334;28;45644;-73
2022/09/13 04:58:35;;;;;;;;;2.00;2.00;;;;;27.52;39.11;99092.38;4980398;28;47367;-72
2022/09/13 05:01:02;;;;;;;;;2.00;2.00;;;;;27.49;38.95;99084.50;4981979;28;45471;-73
2022/09/13 05:03:32;;;;;;;;;1.67;1.00;;;;;27.74;39.18;99141.00;4982023;28;45437;-74
2022/09/13 05:06:10;;;;;;;;;2.67;1.33;;;;;27.61;39.42;99126.63;4982138;28;45547;-72
2022/09/13 05:08:37;;;;;;;;;2.33;1.00;;;;;27.68;38.97;99152.13;4980375;28;45580;-73
2022/09/13 05:11:03;;;;;;;;;0.00;0.00;;;;;27.65;38.88;99157.66;4982184;28;45729;-73
2022/09/13 05:13:28;;;;;;;;;1.00;1.00;;;;;27.62;38.88;99157.03;4981764;28;45407;-73
2022/09/13 05:15:59;;;;;;;;;1.33;1.00;;;;;27.69;38.91;99166.41;4981799;28;45564;-72
2022/09/13 05:18:26;;;;;;;;;2.00;2.00;;;;;27.60;39.45;99149.06;4980621;28;46541;-72
2022/09/13 05:20:56;;;;;;;;;1.00;1.00;;;;;27.67;39.58;99163.81;4981544;28;45500;-73
2022/09/13 05:23:23;;;;;;;;;1.00;1.00;;;;;27.68;39.38;99160.19;4981945;28;45615;-73
2022/09/13 05:25:56;;;;;;;;;3.00;2.00;;;;;27.67;39.67;99166.47;4981970;28;45380;-73
2022/09/13 05:28:22;;;;;;;;;2.00;1.00;;;;;27.60;39.98;99169.69;4981549;28;45996;-73
2022/09/13 05:30:59;;;;;;;;;1.00;1.00;;;;;27.54;40.08;99177.13;4981966;28;45546;-73
2022/09/13 05:33:26;;;;;;;;;2.00;1.00;;;;;27.52;40.32;99172.84;4980316;28;45475;-74
2022/09/13 05:35:52;;;;;;;;;2.00;1.33;;;;;27.38;40.52;99153.09;4981877;28;45339;-72
2022/09/13 05:38:18;;;;;;;;;1.00;1.00;;;;;27.43;39.99;99165.34;4980108;28;45373;-73
2022/09/13 05:40:44;;;;;;;;;2.00;1.67;;;;;27.39;40.37;99161.97;4981585;28;45714;-73
2022/09/13 05:43:09;;;;;;;;;2.00;1.33;;;;;27.36;40.88;99157.69;4981806;28;45286;-72
2022/09/13 05:45:35;;;;;;;;;2.00;1.00;;;;;27.40;40.62;99177.13;4982221;28;45436;-73
2022/09/13 05:48:01;;;;;;;;;1.33;1.00;;;;;27.34;41.12;99170.31;4981459;28;45650;-73
2022/09/13 05:50:26;;;;;;;;;2.00;1.00;;;;;27.29;41.25;99155.47;4980507;28;45524;-73
2022/09/13 05:52:55;;;;;;;;;2.00;1.33;;;;;27.28;41.31;99154.63;4981220;28;45584;-73
2022/09/13 05:55:21;;;;;;;;;3.00;2.00;;;;;27.28;41.38;99161.81;4980065;28;45499;-73
2022/09/13 05:57:48;;;;;;;;;2.00;2.00;;;;;27.23;41.49;99155.81;4979953;28;46754;-73
2022/09/13 06:00:15;;;;;;;;;2.33;2.00;;;;;27.30;41.57;99171.47;4978339;28;45448;-72
2022/09/13 06:02:41;;;;;;;;;3.00;3.00;;;;;27.21;41.32;99145.19;4978203;28;45407;-73
2022/09/13 06:05:10;;;;;;;;;1.33;1.33;;;;;27.26;41.75;99158.34;4977597;28;45643;-72
2022/09/13 06:07:39;;;;;;;;;2.00;2.00;;;;;27.17;41.62;99149.00;4978429;28;46260;-73
2022/09/13 06:10:05;;;;;;;;;3.33;3.00;;;;;27.35;41.68;99187.25;4977868;28;45337;-72
2022/09/13 06:12:30;;;;;;;;;3.00;2.00;;;;;27.29;41.26;99152.78;4978165;28;45324;-72
2022/09/13 06:14:56;;;;;;;;;2.33;2.33;;;;;27.37;41.56;99174.63;4976689;28;45510;-73
2022/09/13 06:17:21;;;;;;;;;2.33;2.00;;;;;27.40;41.44;99173.56;4976554;28;45529;-73
2022/09/13 06:19:47;;;;;;;;;0.00;0.00;;;;;27.53;41.47;99190.63;4976726;28;45394;-72
2022/09/13 06:22:12;;;;;;;;;2.33;2.33;;;;;27.45;41.33;99183.06;4977912;28;45431;-73
2022/09/13 06:24:38;;;;;;;;;2.00;2.00;;;;;27.57;41.01;99194.84;4976649;28;45665;-73
2022/09/13 06:27:04;;;;;;;;;3.00;2.67;;;;;27.58;41.07;99178.66;4992777;28;47656;-73
2022/09/13 06:29:30;;;;;;;;;3.33;3.00;;;;;27.59;40.70;99176.84;4977535;28;45414;-73
2022/09/13 06:31:56;;;;;;;;;2.67;1.00;;;;;27.69;40.84;99209.31;4976910;28;45638;-72
2022/09/13 06:34:21;;;;;;;;;2.00;2.00;;;;;27.80;40.74;99214.91;4977414;28;45411;-73
2022/09/13 06:36:47;;;;;;;;;4.00;2.00;;;;;27.63;41.13;99186.41;4977457;28;45590;-73
2022/09/13 06:39:12;;;;;;;;;3.00;2.00;;;;;27.54;41.50;99176.28;4976175;28;45501;-73
2022/09/13 06:41:38;;;;;;;;;2.33;2.33;;;;;27.72;41.19;99179.63;4977945;28;45484;-73
2022/09/13 06:44:04;;;;;;;;;4.00;3.00;;;;;27.70;41.59;99198.50;4977947;28;45465;-73
2022/09/13 06:46:32;;;;;;;;;3.00;2.00;;;;;27.67;41.77;99211.25;4977478;28;45573;-73
2022/09/13 06:49:00;;;;;;;;;2.00;2.00;;;;;27.43;42.00;99147.44;4977757;28;45488;-74
2022/09/13 06:51:28;;;;;;;;;3.00;2.00;;;;;27.60;41.59;99186.63;4974584;28;45344;-74
2022/09/13 06:53:57;;;;;;;;;3.00;2.00;;;;;27.74;41.66;99200.03;4977508;28;45775;-74
2022/09/13 06:56:25;;;;;;;;;1.67;1.67;;;;;27.74;41.69;99200.03;4977077;28;46246;-73
2022/09/13 06:58:55;;;;;;;;;2.00;2.00;;;;;27.78;41.91;99225.72;4977453;28;45486;-74
2022/09/13 07:01:26;;;;;;;;;2.33;2.00;;;;;27.96;41.73;99221.03;4973755;28;45522;-74
2022/09/13 07:04:04;;;;;;;;;3.00;2.00;;;;;27.91;42.34;99200.81;4976136;28;45590;-74
2022/09/13 07:06:32;;;;;;;;;4.67;4.00;;;;;27.86;41.72;99200.22;4977128;28;46317;-75
2022/09/13 07:09:00;;;;;;;;;2.33;2.33;;;;;27.77;42.21;99196.28;4974907;28;45305;-74
2022/09/13 07:11:29;;;;;;;;;3.67;3.00;;;;;27.73;42.48;99178.66;4975239;28;45723;-75
2022/09/13 07:13:57;;;;;;;;;1.67;1.00;;;;;27.90;42.07;99175.81;4977269;28;45372;-74
2022/09/13 07:16:26;;;;;;;;;5.33;3.00;;;;;27.89;42.20;99182.13;4976816;28;45464;-75
2022/09/13 07:18:57;;;;;;;;;2.00;2.00;;;;;27.77;42.56;99188.25;4975357;28;45366;-74
2022/09/13 07:21:24;;;;;;;;;2.00;1.67;;;;;27.81;42.63;99219.28;4969462;28;45496;-74
2022/09/13 07:23:51;;;;;;;;;4.00;3.00;;;;;27.74;42.82;99220.66;4976050;28;45745;-75
2022/09/13 07:26:17;;;;;;;;;4.00;2.00;;;;;27.27;43.45;99173.47;4974652;28;46954;-74
2022/09/13 07:28:45;;;;;;;;;2.33;1.00;;;;;27.54;44.12;99228.09;4976341;28;45516;-75
2022/09/13 07:31:25;;;;;;;;;1.33;1.33;;;;;27.56;44.42;99246.78;4976295;28;45538;-76
2022/09/13 07:33:56;;;;;;;;;3.33;3.00;;;;;27.30;44.88;99226.91;4973371;28;45496;-75
2022/09/13 07:36:23;;;;;;;;;4.33;2.33;;;;;27.27;44.89;99206.50;4972174;28;45608;-75
2022/09/13 07:38:49;;;;;;;;;2.67;1.33;;;;;27.35;45.28;99233.69;4975808;28;45514;-75
2022/09/13 07:41:22;;;;;;;;;4.33;4.00;;;;;27.23;45.70;99244.28;4975692;28;45511;-73
2022/09/13 07:43:48;;;;;;;;;3.00;2.67;;;;;27.22;45.57;99272.03;4975784;28;45458;-74
2022/09/13 07:46:16;;;;;;;;;3.00;3.00;;;;;27.14;46.03;99237.66;4975174;28;45474;-76
2022/09/13 07:48:43;;;;;;;;;2.67;2.67;;;;;26.62;46.02;99150.50;4975971;28;45831;-77
2022/09/13 07:51:14;;;;;;;;;2.00;2.00;;;;;27.12;45.68;99205.56;4976278;28;45429;-75
2022/09/13 07:53:42;;;;;;;;;4.00;3.00;;;;;27.04;46.21;99174.81;4971330;28;45551;-75
2022/09/13 07:56:15;;;;;;;;;2.33;2.00;;;;;27.10;46.18;99194.09;4972275;28;45446;-74
2022/09/13 07:58:42;;;;;;;;;3.00;3.00;;;;;27.16;46.22;99193.72;4970043;28;45622;-76
2022/09/13 08:01:15;;;;;;;;;1.33;0.33;;;;;27.23;46.23;99196.03;4974332;28;45507;-75
2022/09/13 08:03:41;;;;;;;;;1.00;1.00;;;;;27.14;46.01;99189.41;4972448;28;45581;-76
2022/09/13 08:06:08;;;;;;;;;3.33;2.67;;;;;27.27;46.43;99222.59;4974292;28;46234;-74
2022/09/13 08:08:35;;;;;;;;;3.00;3.00;;;;;27.27;46.39;99206.50;4974522;28;45515;-75
2022/09/13 08:11:02;;;;;;;;;3.67;3.00;;;;;27.49;46.25;99226.66;4973443;28;45349;-75
2022/09/13 08:13:28;;;;;;;;;2.67;2.67;;;;;27.64;46.28;99240.97;4975152;28;45480;-76
2022/09/13 08:15:54;;;;;;;;;4.00;3.33;;;;;27.42;46.35;99193.13;4970659;28;45943;-76
2022/09/13 08:18:20;;;;;;;;;5.00;3.00;;;;;27.56;46.49;99215.44;4975760;28;46034;-75
2022/09/13 08:20:46;;;;;;;;;2.00;2.00;;;;;27.63;46.61;99225.81;4976465;28;45380;-75
2022/09/13 08:23:13;;;;;;;;;3.00;3.00;;;;;27.49;46.67;99186.41;4975253;28;45630;-76
2022/09/13 08:25:39;;;;;;;;;3.00;3.00;;;;;27.45;46.66;99177.69;4976742;28;45669;-76
2022/09/13 08:28:14;;;;;;;;;2.67;2.67;;;;;27.37;46.77;99137.09;4967952;28;45797;-76
2022/09/13 08:30:42;;;;;;;;;2.33;2.33;;;;;27.55;46.59;99165.44;4959204;28;45567;-75
2022/09/13 08:33:10;;;;;;;;;2.67;2.67;;;;;27.43;46.32;99151.94;4962658;28;45556;-75
2022/09/13 08:35:36;;;;;;;;;3.67;3.00;;;;;27.48;46.96;99176.66;4965730;28;47862;-77
2022/09/13 08:38:03;;;;;;;;;4.00;3.00;;;;;27.62;46.96;99211.53;4966812;28;45265;-75
2022/09/13 08:40:40;;;;;;;;;4.00;3.33;;;;;27.32;46.93;99176.75;4964794;28;45396;-76
2022/09/13 08:43:26;;;;;;;;;2.67;2.67;;;;;27.23;47.00;99156.66;4963798;28;45527;-76
2022/09/13 08:46:13;;;;;;;;;2.67;2.00;;;;;27.54;47.30;99203.97;4966647;28;45539;-76
2022/09/13 08:48:43;;;;;;;;;3.33;3.00;;;;;27.65;46.76;99199.75;4967194;28;45475;-77
2022/09/13 08:51:26;;;;;;;;;4.00;3.00;;;;;27.57;46.64;99193.06;4964431;28;45369;-76
2022/09/13 08:53:52;;;;;;;;;3.33;3.00;;;;;27.52;46.60;99200.50;4956899;28;45395;-76
2022/09/13 08:56:25;;;;;;;;;4.00;3.00;;;;;27.09;46.33;99111.94;4972826;28;47858;-76
2022/09/13 08:59:15;;;;;;;;;2.67;2.67;;;;;27.57;46.12;99194.84;4964094;28;45590;-76
2022/09/13 09:01:49;;;;;;;;;5.00;3.67;;;;;27.63;45.90;99191.78;4966887;28;45453;-77
2022/09/13 09:04:27;;;;;;;;;3.33;3.33;;;;;27.67;45.65;99192.47;4972681;28;45412;-76
2022/09/13 09:07:05;;;;;;;;;3.33;3.00;;;;;27.18;45.90;99103.34;4965064;28;45407;-77
2022/09/13 09:09:42;;;;;;;;;2.33;2.33;;;;;26.62;45.05;99008.53;4965886;28;45340;-77
2022/09/13 09:12:16;;;;;;;;;1.00;1.00;;;;;27.96;44.53;99204.09;4965197;28;45455;-76
2022/09/13 09:14:46;;;;;;;;;4.00;3.00;;;;;28.05;44.61;99208.84;4965826;28;45498;-76
2022/09/13 09:17:21;;;;;;;;;6.00;3.67;;;;;27.66;44.95;99134.41;4966326;28;46373;-76
2022/09/13 09:19:54;;;;;;;;;3.00;3.00;;;;;27.94;45.15;99182.72;4974947;28;45465;-76
2022/09/13 09:22:28;;;;;;;;;6.00;3.00;;;;;27.76;45.12;99154.34;4976150;28;45413;-76
2022/09/13 09:24:56;;;;;;;;;3.33;2.67;;;;;28.08;45.06;99208.66;4976332;28;45475;-77
2022/09/13 09:27:22;;;;;;;;;3.00;2.00;;;;;27.79;44.46;99127.28;4973852;28;47708;-77
2022/09/13 09:29:52;;;;;;;;;3.67;3.00;;;;;28.42;43.88;99227.97;4967207;28;45403;-77
2022/09/13 09:32:36;;;;;;;;;4.00;4.00;;;;;28.56;43.64;99213.69;4976027;28;45393;-77
2022/09/13 09:35:11;;;;;;;;;7.00;3.33;;;;;28.65;43.16;99194.28;4976321;28;45627;-77
2022/09/13 09:37:40;;;;;;;;;3.33;2.00;;;;;28.63;43.12;99185.47;4979792;28;46164;-77
2022/09/13 09:40:11;;;;;;;;;7.00;4.00;;;;;28.73;42.59;99204.53;4979702;28;45324;-77
2022/09/13 09:42:45;;;;;;;;;4.67;4.00;;;;;28.45;42.46;99146.31;4979175;28;45307;-76
2022/09/13 09:45:31;;;;;;;;;3.67;2.00;;;;;28.92;42.14;99204.97;4978501;28;45470;-77
2022/09/13 09:48:03;;;;;;;;;3.67;3.00;;;;;28.97;41.98;99223.50;4979370;28;45696;-77
2022/09/13 09:50:35;;;;;;;;;3.33;3.00;;;;;28.86;42.05;99193.78;4979180;28;45443;-77
2022/09/13 09:53:07;;;;;;;;;6.00;4.67;;;;;28.71;42.16;99184.91;4979447;28;45501;-77
2022/09/13 09:55:50;;;;;;;;;5.00;3.67;;;;;28.95;41.79;99220.06;4979529;28;45457;-77
2022/09/13 09:58:17;;;;;;;;;2.33;2.33;;;;;28.89;42.03;99215.09;4977668;28;45692;-77
2022/09/13 10:00:57;;;;;;;;;4.00;3.00;;;;;28.90;42.20;99209.59;4979312;28;45514;-77
2022/09/13 10:03:28;;;;;;;;;3.00;2.00;;;;;28.89;42.41;99207.03;4979345;28;45328;-77
2022/09/13 10:06:17;;;;;;;;;3.00;3.00;;;;;29.17;42.09;99227.56;4978522;28;45503;-78
2022/09/13 10:09:07;;;;;;;;;4.00;4.00;;;;;29.10;41.58;99227.06;4960390;28;45800;-77
2022/09/13 10:11:50;;;;;;;;;3.33;2.33;;;;;29.23;41.50;99223.59;4950845;28;45607;-75
2022/09/13 10:14:38;;;;;;;;;5.00;4.00;;;;;28.89;41.43;99185.53;4959556;28;45496;-77
2022/09/13 10:17:17;;;;;;;;;3.00;2.67;;;;;29.08;42.20;99210.19;4959306;28;45455;-77
2022/09/13 10:20:03;;;;;;;;;4.00;4.00;;;;;29.06;42.54;99197.81;4958370;28;45708;-77
2022/09/13 10:22:31;;;;;;;;;4.00;2.67;;;;;29.02;40.88;99177.50;4959482;28;45557;-77
2022/09/13 10:25:25;;;;;;;;;3.33;2.00;;;;;29.37;40.58;99236.97;4959776;28;45326;-77
2022/09/13 10:27:57;;;;;;;;;3.33;3.00;;;;;29.26;40.60;99193.78;4959487;28;45461;-77
2022/09/13 10:30:47;;;;;;;;;3.00;3.00;;;;;29.52;40.02;99225.13;4958106;28;46180;-77
2022/09/13 10:33:27;;;;;;;;;3.67;3.67;;;;;29.57;39.99;99215.88;4959220;28;45538;-77
2022/09/13 10:35:58;;;;;;;;;3.00;2.67;;;;;29.38;39.40;99171.41;4959393;28;45468;-77
2022/09/13 10:38:30;;;;;;;;;4.67;4.67;;;;;29.72;39.21;99236.34;4960041;28;45436;-77
2022/09/13 10:40:56;;;;;;;;;4.00;3.00;;;;;29.73;39.24;99238.09;4958849;28;46527;-77
2022/09/13 10:43:26;;;;;;;;;2.00;2.00;;;;;29.61;39.94;99196.72;4959032;28;45346;-77
2022/09/13 10:45:52;;;;;;;;;4.67;4.00;;;;;29.79;38.96;99226.03;4958365;28;45500;-77
2022/09/13 10:48:19;;;;;;;;;3.00;3.00;;;;;29.61;38.87;99187.78;4959509;28;45273;-77
2022/09/13 10:51:05;;;;;;;;;6.00;5.00;;;;;29.81;38.51;99202.56;4959547;28;46439;-77
2022/09/13 10:53:33;;;;;;;;;2.33;2.33;;;;;29.98;37.91;99228.25;4973882;28;45390;-77
2022/09/13 10:56:01;;;;;;;;;3.00;3.00;;;;;30.03;38.11;99204.56;4959027;28;45525;-77
2022/09/13 10:58:27;;;;;;;;;3.00;2.33;;;;;29.99;38.20;99197.69;4958969;28;45480;-78
2022/09/13 11:01:33;;;;;;;;;3.00;2.00;;;;;30.01;38.10;99199.28;4956327;28;47742;-77
2022/09/13 11:04:56;;;;;;;;;3.00;2.00;;;;;29.98;38.31;99185.19;4957402;28;45429;-77
2022/09/13 11:08:01;;;;;;;;;2.33;2.33;;;;;30.02;38.41;99201.00;4898620;29;45466;-77
2022/09/13 11:10:45;;;;;;;;;2.00;2.00;;;;;30.03;37.97;99218.03;4898872;28;45408;-77
2022/09/13 11:13:28;;;;;;;;;3.00;2.67;;;;;30.00;37.99;99223.63;4956440;28;48061;-77
2022/09/13 11:16:04;;;;;;;;;1.67;1.67;;;;;29.61;37.37;99155.50;4970888;28;45374;-77
2022/09/13 11:18:55;;;;;;;;;2.33;2.33;;;;;29.99;36.79;99233.53;4973553;28;45520;-78
2022/09/13 11:21:30;;;;;;;;;2.33;2.33;;;;;29.77;37.33;99211.81;4973516;28;45351;-77
2022/09/13 11:24:08;;;;;;;;;2.67;2.00;;;;;29.81;36.84;99230.34;4958407;28;45379;-77
2022/09/13 11:26:41;;;;;;;;;3.00;2.67;;;;;29.70;37.23;99209.50;4958221;28;45464;-77
2022/09/13 11:29:27;;;;;;;;;3.00;2.67;;;;;29.68;37.70;99213.28;4958749;28;45463;-77
2022/09/13 11:32:18;;;;;;;;;3.00;3.00;;;;;29.44;37.93;99192.50;4958709;28;45489;-77
2022/09/13 11:35:29;;;;;;;;;2.00;1.33;;;;;29.49;37.81;99214.59;4958752;28;45596;-78
2022/09/13 11:37:55;;;;;;;;;2.33;2.33;;;;;29.61;38.33;99217.41;4950269;28;45743;-77
2022/09/13 11:40:42;;;;;;;;;3.00;2.00;;;;;29.69;38.40;99213.19;4973277;28;45464;-77
2022/09/13 11:43:23;;;;;;;;;0.00;0.00;;;;;29.73;38.74;99211.19;4973469;28;45590;-78
2022/09/13 11:46:09;;;;;;;;;6.67;5.67;;;;;29.77;38.33;99207.28;4957186;28;48139;-77
2022/09/13 11:48:56;;;;;;;;;4.00;3.00;;;;;29.78;38.32;99209.00;4957112;28;45782;-77
2022/09/13 11:51:47;;;;;;;;;3.33;2.67;;;;;29.62;38.82;99203.81;4973268;28;45507;-77
2022/09/13 11:54:31;;;;;;;;;2.00;2.00;;;;;29.71;38.15;99224.72;4957989;28;46003;-77
2022/09/13 11:57:06;;;;;;;;;3.00;2.00;;;;;29.74;38.56;99226.34;4972482;28;47692;-78
2022/09/13 11:59:43;;;;;;;;;3.00;2.33;;;;;29.69;38.00;99217.72;4956809;28;45288;-77
2022/09/13 12:02:48;;;;;;;;;3.67;2.67;;;;;29.22;37.97;99147.41;4972985;28;45194;-77